Time;durP1;ratioP1;P1;durP2;ratioP2;P2;SDS_P1;SDS_P2;PMS_P1;PMS_P2;Temp;Humidity;BMP_temperature;BMP_pressure;BME280_temperature;BME280_humidity;BME280_pressure;Samples;Min_cycle;Max_cycle;Signal;HPM_P1;HPM_P2
2022/11/11 00:01:15;;;;;;;40.25;28.85;;;;;;;6.42;97.23;101628.88;5010160;28;20032;-66
2022/11/11 00:03:42;;;;;;;39.35;29.13;;;;;;;6.43;97.97;101639.25;5011224;28;20034;-67
2022/11/11 00:06:13;;;;;;;42.00;29.50;;;;;;;6.35;98.92;101639.47;5011151;28;20026;-69
2022/11/11 00:08:38;;;;;;;43.67;29.67;;;;;;;6.36;98.95;101641.25;5005569;28;20044;-68
2022/11/11 00:11:09;;;;;;;40.33;29.77;;;;;;;6.40;98.89;101645.81;5003120;28;20026;-70
2022/11/11 00:13:37;;;;;;;41.15;30.08;;;;;;;6.40;98.05;101645.81;5010844;28;20033;-67
2022/11/11 00:16:07;;;;;;;36.67;28.65;;;;;;;5.76;97.54;101528.38;5008239;28;20038;-69
2022/11/11 00:27:04;;;;;;;43.97;28.80;;;;;;;6.08;96.00;101606.78;5002439;28;20507;-67
2022/11/11 00:29:29;;;;;;;45.03;29.42;;;;;;;5.92;95.92;101591.91;5010602;28;20026;-69
2022/11/11 00:34:38;;;;;;;37.40;27.02;;;;;;;5.78;97.79;101616.53;5003839;28;20071;-68
2022/11/11 00:37:04;;;;;;;45.20;29.90;;;;;;;5.26;98.20;101526.41;5010582;28;20092;-66
2022/11/11 00:39:29;;;;;;;36.70;28.05;;;;;;;5.84;98.02;101621.19;5009429;28;20025;-69
2022/11/11 00:41:55;;;;;;;43.47;27.52;;;;;;;5.12;97.31;101499.78;4999002;28;20025;-65
2022/11/11 00:44:20;;;;;;;40.88;28.23;;;;;;;5.88;96.63;101628.34;5009102;28;20029;-67
2022/11/11 00:52:13;;;;;;;36.50;28.40;;;;;;;5.97;95.64;101628.16;5007724;28;20072;-67
2022/11/11 00:54:39;;;;;;;42.25;28.77;;;;;;;5.92;95.11;101609.84;5009610;28;20105;-66
2022/11/11 00:57:04;;;;;;;38.25;26.10;;;;;;;5.97;94.66;101602.50;5010030;28;20030;-68
2022/11/11 00:59:29;;;;;;;38.45;28.35;;;;;;;6.07;93.93;101611.78;5008490;28;20046;-65
2022/11/11 01:01:55;;;;;;;36.92;27.15;;;;;;;6.02;94.95;101602.88;5009546;28;20084;-66
2022/11/11 01:04:21;;;;;;;39.15;27.92;;;;;;;6.18;94.64;101616.06;5009722;28;20049;-69
2022/11/11 01:06:46;;;;;;;48.88;29.02;;;;;;;6.04;96.84;101603.88;5009849;28;20030;-69
2022/11/11 01:09:12;;;;;;;37.42;27.73;;;;;;;5.45;96.86;101515.88;5009245;28;20431;-68
2022/11/11 01:11:37;;;;;;;43.83;29.75;;;;;;;5.88;97.01;101573.63;5009750;28;20029;-65
2022/11/11 01:14:02;;;;;;;40.65;27.90;;;;;;;6.07;97.42;101605.00;5013418;28;20029;-66
2022/11/11 01:16:28;;;;;;;38.42;28.30;;;;;;;5.73;96.92;101532.38;5013488;28;20041;-68
2022/11/11 01:18:54;;;;;;;35.40;27.85;;;;;;;5.92;96.70;101588.44;5013710;28;20026;-65
2022/11/11 01:21:23;;;;;;;42.13;29.10;;;;;;;5.89;96.67;101608.72;5013887;28;20153;-65
2022/11/11 01:23:50;;;;;;;39.10;29.75;;;;;;;5.84;96.69;101587.88;5013196;28;20026;-72
2022/11/11 01:26:18;;;;;;;44.40;30.85;;;;;;;6.01;96.42;101611.31;5013898;28;20120;-67
2022/11/11 01:28:44;;;;;;;43.05;29.60;;;;;;;5.89;96.58;101601.91;5013613;28;20033;-70
2022/11/11 01:31:12;;;;;;;43.08;29.58;;;;;;;5.74;97.03;101590.53;5013197;28;20038;-70
2022/11/11 01:33:38;;;;;;;41.58;29.98;;;;;;;5.53;97.28;101570.22;5013279;28;20022;-69
2022/11/11 01:36:24;;;;;;;38.83;29.92;;;;;;;5.62;98.02;101601.66;5013582;28;20026;-67
2022/11/11 01:38:55;;;;;;;42.80;31.33;;;;;;;5.56;98.40;101600.28;5012315;28;20053;-68
2022/11/11 01:41:35;;;;;;;39.80;29.48;;;;;;;5.57;97.69;101597.88;5013416;28;20554;-68
2022/11/11 01:44:09;;;;;;;40.78;29.35;;;;;;;5.65;97.62;101596.75;5013272;28;20034;-68
2022/11/11 01:47:03;;;;;;;44.13;30.70;;;;;;;5.74;98.01;101605.91;5013085;28;20029;-67
2022/11/11 01:49:42;;;;;;;43.25;29.55;;;;;;;5.67;97.81;101592.66;5013096;28;20022;-68
2022/11/11 01:52:10;;;;;;;42.60;29.80;;;;;;;4.36;99.15;101362.69;5012774;28;20048;-67
2022/11/11 01:54:53;;;;;;;43.47;29.35;;;;;;;5.73;99.49;101604.13;5013244;28;20497;-73
2022/11/11 01:57:25;;;;;;;42.08;30.40;;;;;;;5.07;99.35;101492.50;5012885;28;20032;-69
2022/11/11 01:59:59;;;;;;;46.20;31.05;;;;;;;5.63;99.44;101597.41;5011109;28;20112;-69
2022/11/11 02:02:52;;;;;;;46.50;32.22;;;;;;;5.64;98.72;101602.66;5010684;28;20041;-69
2022/11/11 02:08:09;;;;;;;46.28;32.72;;;;;;;5.57;99.89;101602.09;5013694;28;20037;-68
2022/11/11 02:10:35;;;;;;;42.92;31.15;;;;;;;5.33;99.94;101582.44;5026948;28;20037;-69
2022/11/11 02:15:44;;;;;;;47.00;32.05;;;;;;;4.32;100.00;101458.69;5012741;28;20041;-68
2022/11/11 02:18:10;;;;;;;47.30;33.33;;;;;;;4.78;100.00;101573.94;5012775;28;20022;-70
2022/11/11 02:20:38;;;;;;;43.22;34.30;;;;;;;4.96;100.00;101607.75;5011457;28;20026;-69
2022/11/11 02:23:27;;;;;;;48.13;34.20;;;;;;;4.93;100.00;101583.59;5012998;28;20506;-69
2022/11/11 02:25:55;;;;;;;48.08;32.60;;;;;;;5.19;100.00;101606.06;5009990;28;20147;-69
2022/11/11 02:28:24;;;;;;;45.70;32.42;;;;;;;5.19;100.00;101608.63;5006822;28;20033;-70
2022/11/11 02:30:50;;;;;;;46.63;32.88;;;;;;;5.16;100.00;101613.53;5012602;28;20038;-69
2022/11/11 02:33:15;;;;;;;45.78;33.67;;;;;;;5.28;100.00;101609.34;5013373;28;20026;-69
2022/11/11 02:35:45;;;;;;;44.70;31.13;;;;;;;5.14;99.85;101575.00;5013420;28;20030;-68
2022/11/11 02:38:11;;;;;;;43.45;33.00;;;;;;;5.24;99.94;101606.44;5013356;28;20027;-68
2022/11/11 02:41:55;;;;;;;48.53;32.70;;;;;;;5.17;99.81;101605.06;5013094;28;20172;-69
2022/11/11 02:43:29;;;;;;;45.03;33.80;;;;;;;4.98;99.48;101575.47;5012941;28;20041;-69
2022/11/11 02:45:54;;;;;;;46.05;30.33;;;;;;;5.25;98.85;101609.09;5013077;28;20026;-69
2022/11/11 02:48:20;;;;;;;43.20;31.98;;;;;;;5.24;99.27;101609.00;5013062;28;20093;-69
2022/11/11 02:50:46;;;;;;;46.90;32.53;;;;;;;5.22;99.31;101610.53;5013115;28;20053;-69
2022/11/11 02:53:11;;;;;;;42.63;29.55;;;;;;;5.21;99.08;101599.41;5012581;28;20107;-69
2022/11/11 02:55:37;;;;;;;43.35;30.33;;;;;;;5.28;97.70;101608.44;5013154;28;20030;-69
2022/11/11 02:58:03;;;;;;;42.45;31.60;;;;;;;4.97;97.96;101577.91;5013185;28;20026;-69
2022/11/11 03:00:28;;;;;;;45.13;32.38;;;;;;;4.18;99.48;101459.31;5013013;28;20483;-69
2022/11/11 03:02:53;;;;;;;43.38;31.13;;;;;;;4.95;99.41;101593.16;5012966;28;20036;-69
2022/11/11 03:05:19;;;;;;;49.05;31.77;;;;;;;4.27;99.32;101466.81;5012661;28;20119;-69
2022/11/11 03:07:44;;;;;;;41.75;31.80;;;;;;;4.44;99.66;101489.47;5012544;28;20026;-69
2022/11/11 03:10:10;;;;;;;43.97;30.67;;;;;;;5.13;98.77;101615.84;5012255;28;20038;-69
2022/11/11 03:12:36;;;;;;;44.28;31.50;;;;;;;5.17;98.56;101605.97;5012726;28;20088;-69
2022/11/11 03:15:02;;;;;;;46.45;32.25;;;;;;;4.85;98.36;101550.63;5012697;28;20048;-67
2022/11/11 03:17:40;;;;;;;41.47;30.25;;;;;;;4.99;98.16;101559.34;5012623;28;20026;-69
2022/11/11 03:23:13;;;;;;;41.30;28.45;;;;;;;4.67;96.05;101562.88;5012274;28;20048;-69
2022/11/11 03:25:46;;;;;;;40.58;29.25;;;;;;;4.80;95.35;101597.97;5012330;28;20033;-69
2022/11/11 03:28:17;;;;;;;44.75;30.00;;;;;;;4.62;95.80;101566.75;5012478;28;20486;-69
2022/11/11 03:30:44;;;;;;;38.70;28.15;;;;;;;4.82;95.50;101618.56;5012329;28;20519;-69
2022/11/11 03:33:10;;;;;;;46.70;30.42;;;;;;;4.81;96.00;101635.59;5012437;28;20037;-69
2022/11/11 03:35:36;;;;;;;44.58;30.60;;;;;;;4.66;96.64;101596.00;5012215;28;20025;-70
2022/11/11 03:38:23;;;;;;;48.00;30.20;;;;;;;4.82;96.91;101629.72;5012487;28;20064;-69
2022/11/11 03:40:54;;;;;;;43.53;30.35;;;;;;;4.54;97.56;101617.28;5012234;28;20083;-69
2022/11/11 03:43:22;;;;;;;44.58;31.10;;;;;;;4.18;98.27;101589.66;5011644;28;20026;-67
2022/11/11 03:45:47;;;;;;;48.90;33.55;;;;;;;4.28;98.64;101625.41;5012071;28;20510;-69
2022/11/11 03:48:14;;;;;;;45.70;32.63;;;;;;;4.08;99.02;101575.25;5011996;28;20026;-66
2022/11/11 03:50:40;;;;;;;45.60;32.83;;;;;;;4.39;98.87;101618.63;5011645;28;20037;-67
2022/11/11 03:53:05;;;;;;;53.35;33.17;;;;;;;4.51;99.18;101640.06;5011700;28;20030;-67
2022/11/11 03:55:31;;;;;;;50.97;33.45;;;;;;;3.91;99.58;101524.44;5011920;28;20036;-66
2022/11/11 03:57:56;;;;;;;52.13;34.22;;;;;;;4.61;99.45;101631.47;5011661;28;20391;-66
2022/11/11 04:00:25;;;;;;;47.65;33.10;;;;;;;4.51;98.83;101636.59;5011039;28;20046;-67
2022/11/11 04:11:14;;;;;;;55.75;36.08;;;;;;;4.27;100.00;101621.06;5002194;28;20044;-69
2022/11/11 04:16:27;;;;;;;51.00;33.25;;;;;;;4.43;100.00;101625.75;5009015;28;20041;-68
2022/11/11 04:21:42;;;;;;;48.70;31.92;;;;;;;4.47;100.00;101622.66;5010113;28;20411;-67
2022/11/11 04:27:00;;;;;;;47.17;31.42;;;;;;;4.37;100.00;101608.28;5010647;28;20111;-64
2022/11/11 04:29:29;;;;;;;47.53;33.47;;;;;;;4.49;100.00;101630.47;5008190;28;20053;-69
2022/11/11 04:34:59;;;;;;;47.83;32.60;;;;;;;4.44;99.83;101626.66;5008583;28;20439;-69
2022/11/11 04:37:27;;;;;;;50.70;33.13;;;;;;;4.35;100.00;101612.34;5008916;28;20026;-69
2022/11/11 04:42:40;;;;;;;46.97;34.13;;;;;;;4.50;99.25;101642.50;5011176;28;20037;-69
2022/11/11 04:45:26;;;;;;;48.20;34.58;;;;;;;4.56;99.42;101639.53;5009505;28;20026;-69
2022/11/11 04:47:57;;;;;;;54.67;35.95;;;;;;;3.95;99.14;101550.38;5008724;28;20034;-67
2022/11/11 04:50:25;;;;;;;60.95;39.33;;;;;;;4.20;99.35;101601.78;5008279;28;20026;-69
2022/11/11 04:52:51;;;;;;;55.08;36.40;;;;;;;4.41;99.41;101650.31;5010208;28;20484;-69
2022/11/11 04:58:01;;;;;;;54.42;36.85;;;;;;;4.29;100.00;101657.00;5007839;28;20076;-72
2022/11/11 05:00:27;;;;;;;61.22;37.30;;;;;;;4.30;99.76;101651.09;5010425;28;20049;-70
2022/11/11 05:11:06;;;;;;;59.03;36.50;;;;;;;4.20;98.80;101646.91;5008233;28;20502;-69
2022/11/11 05:21:54;;;;;;;60.75;36.00;;;;;;;4.35;99.78;101675.41;5009013;28;20037;-71
2022/11/11 05:27:04;;;;;;;58.28;35.03;;;;;;;4.25;100.00;101666.06;5007793;28;20416;-69
2022/11/11 05:29:29;;;;;;;58.33;35.63;;;;;;;4.43;100.00;101689.69;4999449;28;20026;-69
2022/11/11 05:31:54;;;;;;;59.00;37.15;;;;;;;4.18;100.00;101640.78;5009659;28;20030;-69
2022/11/11 05:34:20;;;;;;;49.13;35.78;;;;;;;4.41;100.00;101681.00;5010823;28;20156;-69
2022/11/11 05:36:45;;;;;;;57.92;35.85;;;;;;;4.37;100.00;101684.06;4975770;28;20416;-69
2022/11/11 05:39:11;;;;;;;55.22;36.28;;;;;;;4.23;100.00;101685.50;5010541;28;20030;-69
2022/11/11 05:41:36;;;;;;;51.50;37.72;;;;;;;4.26;100.00;101687.41;5010832;28;20464;-69
2022/11/11 05:44:01;;;;;;;48.85;35.60;;;;;;;4.28;100.00;101699.53;5010567;28;20037;-69
2022/11/11 05:46:27;;;;;;;57.50;37.53;;;;;;;3.58;100.00;101556.66;5009075;28;20062;-69
2022/11/11 05:51:36;;;;;;;54.50;37.05;;;;;;;4.24;100.00;101696.59;5001773;28;20040;-68
2022/11/11 05:54:02;;;;;;;54.92;37.95;;;;;;;4.19;100.00;101686.03;5010326;28;20029;-69
2022/11/11 05:56:27;;;;;;;60.10;39.38;;;;;;;3.99;100.00;101661.38;5007619;28;20084;-66
2022/11/11 05:58:52;;;;;;;58.63;39.50;;;;;;;4.24;100.00;101706.81;5008569;28;20121;-66
2022/11/11 06:01:18;;;;;;;61.65;39.85;;;;;;;4.27;100.00;101690.06;5013048;28;20026;-65
2022/11/11 06:03:44;;;;;;;57.53;37.70;;;;;;;4.42;100.00;101697.22;5012647;28;20041;-68
2022/11/11 06:06:10;;;;;;;58.22;40.10;;;;;;;4.58;100.00;101695.13;5012805;28;20061;-66
2022/11/11 06:08:36;;;;;;;65.22;41.33;;;;;;;4.37;100.00;101661.97;5027862;28;20034;-66
2022/11/11 06:11:01;;;;;;;71.63;40.10;;;;;;;3.77;100.00;101561.63;5013052;28;20034;-67
2022/11/11 06:13:27;;;;;;;62.13;40.50;;;;;;;4.37;100.00;101677.31;5012730;28;20104;-66
2022/11/11 06:15:55;;;;;;;64.90;41.45;;;;;;;4.36;100.00;101713.88;4994395;28;20034;-66
2022/11/11 06:18:20;;;;;;;67.50;40.75;;;;;;;4.05;100.00;101713.88;5012071;28;20022;-66
2022/11/11 06:20:46;;;;;;;72.25;43.83;;;;;;;3.92;100.00;101703.41;5012919;28;20030;-66
2022/11/11 06:23:11;;;;;;;71.13;42.50;;;;;;;4.20;100.00;101726.16;5013143;28;20411;-68
2022/11/11 06:28:20;;;;;;;73.03;45.72;;;;;;;4.49;100.00;101709.75;5013627;28;20052;-67
2022/11/11 06:30:46;;;;;;;72.13;46.20;;;;;;;4.47;100.00;101696.81;5013457;28;20026;-67
2022/11/11 06:33:11;;;;;;;67.18;43.80;;;;;;;4.74;100.00;101729.66;5013272;28;20212;-67
2022/11/11 06:35:38;;;;;;;64.30;43.83;;;;;;;4.67;100.00;101711.25;5011860;28;20037;-67
2022/11/11 06:38:06;;;;;;;68.75;44.33;;;;;;;3.94;100.00;101556.25;5013499;28;20467;-66
2022/11/11 06:40:32;;;;;;;72.32;45.15;;;;;;;4.50;100.00;101625.47;5013025;28;20488;-67
2022/11/11 06:42:58;;;;;;;60.60;41.38;;;;;;;4.44;100.00;101601.09;5013041;28;20034;-68
2022/11/11 06:45:24;;;;;;;66.75;42.38;;;;;;;5.30;100.00;101735.81;5013109;28;20037;-67
2022/11/11 06:47:50;;;;;;;68.28;43.95;;;;;;;5.33;100.00;101738.63;5013196;28;20117;-67
2022/11/11 06:50:16;;;;;;;66.13;43.60;;;;;;;5.27;100.00;101729.56;5013072;28;20109;-65
2022/11/11 06:52:41;;;;;;;72.03;46.72;;;;;;;5.16;100.00;101680.97;5013373;28;20025;-67
2022/11/11 06:55:07;;;;;;;66.60;46.25;;;;;;;5.46;100.00;101734.47;5012938;28;20037;-67
2022/11/11 06:57:32;;;;;;;66.43;46.03;;;;;;;5.43;100.00;101727.44;5012672;28;20554;-68
2022/11/11 06:59:58;;;;;;;66.00;45.13;;;;;;;5.62;100.00;101733.97;5004496;28;20050;-67
2022/11/11 07:02:23;;;;;;;65.05;45.35;;;;;;;5.74;100.00;101744.28;5006490;28;20405;-67
2022/11/11 07:04:48;;;;;;;75.50;46.28;;;;;;;5.86;100.00;101740.09;5004069;28;20037;-66
2022/11/11 07:07:15;;;;;;;66.07;46.38;;;;;;;5.92;100.00;101720.06;5003812;28;20064;-67
2022/11/11 07:09:41;;;;;;;63.63;46.15;;;;;;;5.99;100.00;101717.22;4999012;28;20129;-66
2022/11/11 07:12:06;;;;;;;74.00;46.60;;;;;;;5.95;100.00;101722.84;4992543;28;20544;-66
2022/11/11 07:14:32;;;;;;;77.25;47.47;;;;;;;5.96;100.00;101718.63;5010190;28;20037;-66
2022/11/11 07:16:57;;;;;;;75.57;48.30;;;;;;;5.97;100.00;101707.59;5012568;28;20037;-67
2022/11/11 07:19:23;;;;;;;77.13;50.45;;;;;;;6.02;100.00;101733.59;5003707;28;20370;-67
2022/11/11 07:21:48;;;;;;;76.88;51.20;;;;;;;5.81;100.00;101708.13;5012332;28;20030;-67
2022/11/11 07:24:13;;;;;;;76.93;49.65;;;;;;;5.95;100.00;101724.53;5012476;28;20030;-66
2022/11/11 07:26:39;;;;;;;75.50;51.75;;;;;;;6.15;100.00;101751.72;5012187;28;20053;-66
2022/11/11 07:29:04;;;;;;;81.13;54.83;;;;;;;6.28;100.00;101740.69;5012344;28;20026;-67
2022/11/11 07:31:30;;;;;;;82.53;52.45;;;;;;;6.41;100.00;101750.22;5012233;28;20686;-67
2022/11/11 07:33:55;;;;;;;77.55;52.78;;;;;;;6.54;100.00;101757.13;5012101;28;20472;-67
2022/11/11 07:36:20;;;;;;;80.47;55.92;;;;;;;6.59;100.00;101758.34;5012429;28;20069;-64
2022/11/11 07:38:46;;;;;;;84.45;54.45;;;;;;;6.46;100.00;101713.84;5011871;28;20476;-67
2022/11/11 07:41:11;;;;;;;83.85;55.00;;;;;;;6.80;100.00;101759.03;5012205;28;20037;-67
2022/11/11 07:43:37;;;;;;;81.25;54.30;;;;;;;6.88;100.00;101746.75;5012139;28;20065;-67
2022/11/11 07:46:02;;;;;;;82.03;54.08;;;;;;;6.97;100.00;101744.88;5011821;28;20054;-66
2022/11/11 07:48:28;;;;;;;77.88;54.72;;;;;;;7.12;100.00;101747.66;5012197;28;20084;-67
2022/11/11 07:50:53;;;;;;;84.18;54.20;;;;;;;7.26;100.00;101740.91;5012015;28;20552;-68
2022/11/11 07:53:19;;;;;;;85.15;55.55;;;;;;;7.27;100.00;101740.16;5011591;28;20034;-66
2022/11/11 07:55:45;;;;;;;85.20;58.47;;;;;;;7.41;100.00;101731.75;5012189;28;20033;-68
2022/11/11 07:58:11;;;;;;;90.50;60.95;;;;;;;7.58;100.00;101737.16;5011837;28;20030;-67
2022/11/11 08:00:36;;;;;;;92.55;59.88;;;;;;;7.69;100.00;101743.94;5011800;28;20057;-67
2022/11/11 08:03:02;;;;;;;95.95;62.15;;;;;;;7.86;100.00;101737.38;5011613;28;20488;-67
2022/11/11 08:05:27;;;;;;;94.13;62.92;;;;;;;8.10;100.00;101743.28;5011614;28;20089;-68
2022/11/11 08:07:52;;;;;;;96.50;62.92;;;;;;;8.11;100.00;101715.88;5011479;28;20416;-65
2022/11/11 08:10:18;;;;;;;89.15;61.58;;;;;;;8.45;100.00;101743.88;5011704;28;20061;-68
2022/11/11 08:15:28;;;;;;;82.15;59.05;;;;;;;8.72;100.00;101752.53;5002586;28;20041;-67
2022/11/11 08:17:53;;;;;;;87.22;62.83;;;;;;;8.90;100.00;101751.94;5009111;28;20033;-67
2022/11/11 08:20:19;;;;;;;86.60;63.05;;;;;;;9.07;100.00;101758.16;5011540;28;20133;-71
2022/11/11 08:22:44;;;;;;;89.70;63.83;;;;;;;9.25;100.00;101755.88;5010339;28;20125;-67
2022/11/11 08:25:14;;;;;;;83.78;61.47;;;;;;;9.27;100.00;101732.78;5001007;28;20042;-67
2022/11/11 08:27:40;;;;;;;82.80;59.35;;;;;;;9.57;100.00;101758.66;5008337;28;20038;-65
2022/11/11 08:30:08;;;;;;;86.65;61.22;;;;;;;9.59;100.00;101762.25;4999687;28;20054;-70
2022/11/11 08:32:33;;;;;;;79.82;58.85;;;;;;;9.05;100.00;101628.38;5001536;28;20022;-68
2022/11/11 08:34:59;;;;;;;81.65;57.33;;;;;;;9.84;100.00;101738.84;5001309;28;20027;-68
2022/11/11 08:37:24;;;;;;;78.03;57.40;;;;;;;9.92;100.00;101752.19;5000146;28;20519;-67
2022/11/11 08:39:51;;;;;;;81.60;56.80;;;;;;;9.88;100.00;101728.81;5000041;28;20110;-67
2022/11/11 08:42:17;;;;;;;76.28;54.70;;;;;;;10.07;100.00;101753.13;5000133;28;20410;-66
2022/11/11 08:44:44;;;;;;;76.50;53.95;;;;;;;10.07;100.00;101745.38;5001130;28;20069;-65
2022/11/11 08:47:09;;;;;;;78.10;56.90;;;;;;;10.08;100.00;101736.84;4999672;28;20034;-68
2022/11/11 08:49:35;;;;;;;74.55;55.65;;;;;;;10.29;100.00;101744.06;4998817;28;20034;-67
2022/11/11 08:52:00;;;;;;;76.68;55.50;;;;;;;10.48;100.00;101746.94;4997839;28;20559;-67
2022/11/11 08:54:26;;;;;;;76.18;53.58;;;;;;;10.54;100.00;101746.41;5001885;28;20042;-68
2022/11/11 08:56:51;;;;;;;72.82;53.85;;;;;;;10.09;100.00;101656.03;5000323;28;20030;-67
2022/11/11 08:59:16;;;;;;;82.13;55.03;;;;;;;10.60;100.00;101730.38;5000375;28;20045;-67
2022/11/11 09:01:42;;;;;;;74.72;53.45;;;;;;;10.59;100.00;101734.66;5001416;28;20069;-64
2022/11/11 09:04:07;;;;;;;73.70;54.83;;;;;;;10.64;100.00;101745.25;4999595;28;20023;-67
2022/11/11 09:06:32;;;;;;;70.85;53.25;;;;;;;10.64;100.00;101748.72;4998035;28;20034;-66
2022/11/11 09:08:58;;;;;;;67.63;53.10;;;;;;;10.65;100.00;101752.19;5002330;28;20422;-66
2022/11/11 09:11:23;;;;;;;68.00;52.22;;;;;;;9.97;100.00;101632.09;5001284;28;20476;-68
2022/11/11 09:13:49;;;;;;;69.53;52.40;;;;;;;10.63;100.00;101743.44;4997422;28;20024;-67
2022/11/11 09:16:14;;;;;;;72.55;51.88;;;;;;;10.68;100.00;101732.59;4995385;28;20031;-69
2022/11/11 09:18:40;;;;;;;69.15;50.33;;;;;;;10.30;100.00;101652.94;4997176;28;20045;-69
2022/11/11 09:21:05;;;;;;;70.35;52.38;;;;;;;10.79;100.00;101729.72;4991282;28;20026;-67
2022/11/11 09:23:31;;;;;;;74.22;50.83;;;;;;;10.86;100.00;101724.09;4991150;28;20031;-67
2022/11/11 09:26:02;;;;;;;69.93;51.92;;;;;;;10.89;99.82;101721.72;4993464;28;20060;-67
2022/11/11 09:28:30;;;;;;;68.75;51.00;;;;;;;10.80;99.35;101688.50;5002585;28;20037;-69
2022/11/11 09:30:59;;;;;;;65.97;51.60;;;;;;;11.03;99.54;101722.47;5000803;28;20030;-68
2022/11/11 09:33:24;;;;;;;71.03;52.28;;;;;;;11.06;99.62;101717.44;5001883;28;20041;-67
2022/11/11 09:35:49;;;;;;;73.90;51.00;;;;;;;11.06;99.71;101724.31;5003259;28;20022;-67
2022/11/11 09:38:15;;;;;;;65.88;50.03;;;;;;;11.12;98.88;101722.97;5004429;28;20026;-67
2022/11/11 09:41:14;;;;;;;67.97;50.47;;;;;;;11.14;98.95;101721.34;5004549;28;20088;-68
2022/11/11 09:44:00;;;;;;;68.50;50.35;;;;;;;11.12;98.96;101716.91;5004936;28;20057;-71
2022/11/11 09:46:38;;;;;;;64.72;51.00;;;;;;;11.13;98.85;101721.28;5005282;28;20057;-68
2022/11/11 09:49:23;;;;;;;67.90;50.08;;;;;;;11.16;99.22;101721.44;5003483;28;20022;-67
2022/11/11 09:52:00;;;;;;;66.88;49.22;;;;;;;11.11;98.97;101699.63;5005237;28;20045;-67
2022/11/11 09:54:42;;;;;;;69.55;51.05;;;;;;;11.13;98.84;101701.47;5002968;28;20030;-68
2022/11/11 09:57:16;;;;;;;67.28;49.60;;;;;;;11.23;98.89;101707.16;5003024;28;20040;-68
2022/11/11 09:59:49;;;;;;;75.50;49.50;;;;;;;11.26;98.24;101700.44;5003403;28;20045;-67
2022/11/11 10:02:27;;;;;;;67.43;48.33;;;;;;;11.32;97.98;101689.56;5004648;28;20497;-68
2022/11/11 10:05:18;;;;;;;65.18;47.47;;;;;;;11.47;97.53;101700.69;5004487;28;20017;-71
2022/11/11 10:07:54;;;;;;;62.22;47.00;;;;;;;11.44;97.15;101686.72;4978666;28;20043;-67
2022/11/11 10:10:29;;;;;;;61.95;47.25;;;;;;;11.29;97.21;101659.25;4963368;28;20027;-67
2022/11/11 10:12:57;;;;;;;60.97;46.42;;;;;;;11.55;97.12;101701.13;4941353;28;20046;-68
2022/11/11 10:15:28;;;;;;;70.03;48.90;;;;;;;11.57;97.04;101696.03;4956876;28;20022;-66
2022/11/11 10:18:05;;;;;;;100.22;79.35;;;;;;;11.15;96.45;101613.69;4977946;28;21575;-67
2022/11/11 10:20:36;;;;;;;95.00;77.00;;;;;;;11.67;96.22;101682.75;4973742;28;20034;-68
2022/11/11 10:23:19;;;;;;;80.82;62.78;;;;;;;11.04;96.43;101579.53;4972157;28;20500;-68
2022/11/11 10:25:55;;;;;;;84.80;65.97;;;;;;;11.64;96.39;101667.09;4972232;28;20500;-67
2022/11/11 10:28:26;;;;;;;74.18;56.13;;;;;;;11.81;96.44;101694.72;4973290;28;20047;-68
2022/11/11 10:30:52;;;;;;;60.78;45.25;;;;;;;11.91;95.79;101692.59;4956230;28;20045;-69
2022/11/11 10:33:42;;;;;;;69.75;48.95;;;;;;;11.82;95.26;101656.78;4971923;28;20057;-69
2022/11/11 10:36:15;;;;;;;63.25;45.55;;;;;;;11.99;95.06;101680.97;4972242;28;20500;-68
2022/11/11 10:38:58;;;;;;;212.88;102.80;;;;;;;12.04;95.45;101679.50;4994445;28;20451;-69
2022/11/11 10:41:38;;;;;;;71.53;48.17;;;;;;;12.13;95.61;101676.50;5013514;28;20026;-68
2022/11/11 10:44:26;;;;;;;56.42;44.85;;;;;;;12.19;94.48;101681.09;5013274;28;20396;-72
2022/11/11 10:47:04;;;;;;;56.78;43.35;;;;;;;12.19;94.52;101681.09;5012868;28;20036;-69
2022/11/11 10:49:34;;;;;;;57.10;42.70;;;;;;;12.21;94.32;101676.88;5013469;28;20030;-71
2022/11/11 10:51:59;;;;;;;;;;;;;;;12.22;94.56;101674.34;5013498;28;20718;-69
2022/11/11 10:54:52;;;;;;;64.20;44.97;;;;;;;12.25;94.61;101674.50;5013158;28;19914;-68
2022/11/11 10:57:31;;;;;;;61.75;45.05;;;;;;;12.24;94.39;101680.50;5013242;28;20100;-68
2022/11/11 11:00:05;;;;;;;58.97;44.13;;;;;;;12.29;94.77;101670.38;5027968;28;20165;-69
2022/11/11 11:02:41;;;;;;;58.30;42.33;;;;;;;12.29;94.63;101667.78;5012834;28;20044;-69
2022/11/11 11:05:32;;;;;;;64.85;48.92;;;;;;;12.30;94.33;101662.69;5012681;28;20036;-68
2022/11/11 11:08:06;;;;;;;61.78;46.30;;;;;;;12.34;94.54;101666.31;4969807;28;20525;-69
2022/11/11 11:10:38;;;;;;;66.25;50.42;;;;;;;12.38;94.26;101663.03;4971288;28;20564;-69
2022/11/11 11:13:08;;;;;;;76.15;55.28;;;;;;;12.37;94.22;101653.50;4971531;28;20118;-66
2022/11/11 11:15:38;;;;;;;69.88;48.72;;;;;;;12.48;94.06;101668.69;4971262;28;20039;-69
2022/11/11 11:18:11;;;;;;;67.28;51.22;;;;;;;12.51;93.98;101671.41;4971286;28;20046;-69
2022/11/11 11:20:36;;;;;;;74.40;52.95;;;;;;;12.54;93.72;101664.69;4971366;28;20046;-68
2022/11/11 11:23:02;;;;;;;68.20;48.50;;;;;;;12.61;93.62;101652.91;4938925;28;20042;-68
2022/11/11 11:25:32;;;;;;;71.32;49.85;;;;;;;12.57;93.74;101661.34;4971172;28;20054;-69
2022/11/11 11:28:16;;;;;;;59.75;44.25;;;;;;;11.92;93.66;101549.47;4971162;28;20042;-69
2022/11/11 11:30:57;;;;;;;67.05;47.42;;;;;;;12.65;93.69;101661.72;4971094;28;20059;-68
2022/11/11 11:33:23;;;;;;;65.97;47.15;;;;;;;12.63;93.72;101659.06;4971445;28;20105;-69
2022/11/11 11:35:48;;;;;;;59.90;43.03;;;;;;;12.62;93.66;101652.09;4970708;28;20035;-69
2022/11/11 11:38:14;;;;;;;70.22;43.88;;;;;;;12.66;93.84;101651.44;4970821;28;20122;-69
2022/11/11 11:40:49;;;;;;;70.05;46.22;;;;;;;12.70;94.12;101652.47;4971004;28;20437;-67
2022/11/11 11:43:34;;;;;;;62.63;43.65;;;;;;;12.72;94.04;101656.00;4970969;28;20034;-69
2022/11/11 11:46:04;;;;;;;65.75;47.00;;;;;;;12.74;94.26;101654.38;4991518;28;20447;-69
2022/11/11 11:48:32;;;;;;;;;;;;;;;12.83;94.71;101659.13;4992965;28;20069;-69
2022/11/11 11:51:17;;;;;;;66.68;46.53;;;;;;;12.28;94.72;101554.66;4992487;28;19914;-69
2022/11/11 11:54:02;;;;;;;63.45;47.50;;;;;;;12.88;95.53;101665.41;4992525;28;20062;-68
2022/11/11 11:56:44;;;;;;;73.75;50.88;;;;;;;12.73;96.14;101655.19;4992039;28;20037;-69
2022/11/11 11:59:51;;;;;;;63.80;46.30;;;;;;;12.88;95.80;101670.56;4991979;28;20088;-68
2022/11/11 12:02:35;;;;;;;67.88;47.88;;;;;;;12.76;95.81;101674.38;4932109;29;20127;-68
2022/11/11 12:05:12;;;;;;;66.80;48.60;;;;;;;12.20;96.71;101564.66;4932089;29;20048;-69
2022/11/11 12:07:59;;;;;;;65.90;47.05;;;;;;;12.88;97.23;101684.41;4931790;29;20143;-69
2022/11/11 12:10:51;;;;;;;55.80;39.78;;;;;;;12.87;97.78;101676.56;4932007;29;20036;-68
2022/11/11 12:13:51;;;;;;;62.13;44.35;;;;;;;12.80;99.09;101670.22;4931944;29;20044;-69
2022/11/11 12:16:25;;;;;;;51.53;41.17;;;;;;;12.73;99.45;101671.63;4875705;29;20045;-68
2022/11/11 12:19:27;;;;;;;55.88;42.67;;;;;;;12.19;100.00;101583.59;4875238;29;20097;-69
2022/11/11 12:22:16;;;;;;;56.00;41.72;;;;;;;12.62;100.00;101678.00;4875411;29;20049;-69
2022/11/11 12:24:59;;;;;;;61.95;44.08;;;;;;;12.56;100.00;101688.06;4801929;29;20094;-70
2022/11/11 12:27:52;;;;;;;56.90;43.38;;;;;;;12.55;100.00;101679.41;4801841;29;20043;-69
2022/11/11 12:30:20;;;;;;;59.65;44.65;;;;;;;12.40;100.00;101650.16;4801754;29;20137;-68
2022/11/11 12:33:15;;;;;;;61.08;43.97;;;;;;;12.37;100.00;101650.91;4801724;29;20051;-69
2022/11/11 12:36:18;;;;;;;61.22;45.10;;;;;;;12.46;100.00;101678.94;4801904;29;20051;-69
2022/11/11 12:39:22;;;;;;;63.58;49.40;;;;;;;12.44;100.00;101681.47;4810827;29;20062;-69
2022/11/11 12:41:50;;;;;;;69.57;52.97;;;;;;;12.42;100.00;101677.03;4820187;29;20042;-70
2022/11/11 12:44:17;;;;;;;70.35;53.72;;;;;;;11.29;100.00;101483.47;4819940;29;20481;-69